sensor_id;sensor_type;location;lat;lon;timestamp;temperature;humidity
69823;SHT31;57119;52.516;13.508;2023-08-06T00:00:22;16.67;99.99
69823;SHT31;57119;52.516;13.508;2023-08-06T00:02:47;16.71;99.99
69823;SHT31;57119;52.516;13.508;2023-08-06T00:05:12;16.67;99.99
69823;SHT31;57119;52.516;13.508;2023-08-06T00:07:38;16.67;99.99
69823;SHT31;57119;52.516;13.508;2023-08-06T00:10:04;16.69;99.99
69823;SHT31;57119;52.516;13.508;2023-08-06T00:12:29;16.70;99.99
69823;SHT31;57119;52.516;13.508;2023-08-06T00:14:55;16.59;99.99
69823;SHT31;57119;52.516;13.508;2023-08-06T00:17:20;16.60;99.99
69823;SHT31;57119;52.516;13.508;2023-08-06T00:19:45;16.64;99.99
69823;SHT31;57119;52.516;13.508;2023-08-06T00:22:11;16.60;99.99
69823;SHT31;57119;52.516;13.508;2023-08-06T00:24:36;16.57;99.99
69823;SHT31;57119;52.516;13.508;2023-08-06T00:27:02;16.56;99.99
69823;SHT31;57119;52.516;13.508;2023-08-06T00:29:27;16.59;99.99
69823;SHT31;57119;52.516;13.508;2023-08-06T00:31:53;16.60;99.99
69823;SHT31;57119;52.516;13.508;2023-08-06T00:34:18;16.64;99.99
69823;SHT31;57119;52.516;13.508;2023-08-06T00:36:43;16.57;99.99
69823;SHT31;57119;52.516;13.508;2023-08-06T00:39:09;16.60;99.99
69823;SHT31;57119;52.516;13.508;2023-08-06T00:41:34;16.60;99.99
69823;SHT31;57119;52.516;13.508;2023-08-06T00:44:00;16.60;99.99
69823;SHT31;57119;52.516;13.508;2023-08-06T00:46:26;16.55;99.99
69823;SHT31;57119;52.516;13.508;2023-08-06T00:48:51;16.56;99.99
69823;SHT31;57119;52.516;13.508;2023-08-06T00:51:17;16.52;99.99
69823;SHT31;57119;52.516;13.508;2023-08-06T00:53:42;16.50;99.99
69823;SHT31;57119;52.516;13.508;2023-08-06T00:56:09;16.45;99.99
69823;SHT31;57119;52.516;13.508;2023-08-06T00:58:35;16.39;99.99
69823;SHT31;57119;52.516;13.508;2023-08-06T01:01:01;16.49;99.99
69823;SHT31;57119;52.516;13.508;2023-08-06T01:03:27;16.46;99.99
69823;SHT31;57119;52.516;13.508;2023-08-06T01:05:53;16.46;99.99
69823;SHT31;57119;52.516;13.508;2023-08-06T01:08:47;16.50;99.99
69823;SHT31;57119;52.516;13.508;2023-08-06T01:11:53;16.48;99.99
69823;SHT31;57119;52.516;13.508;2023-08-06T01:14:35;16.45;99.99
69823;SHT31;57119;52.516;13.508;2023-08-06T01:17:04;16.42;99.99
69823;SHT31;57119;52.516;13.508;2023-08-06T01:19:30;16.41;99.99
69823;SHT31;57119;52.516;13.508;2023-08-06T01:21:55;16.48;99.99
69823;SHT31;57119;52.516;13.508;2023-08-06T01:24:21;16.43;99.99
69823;SHT31;57119;52.516;13.508;2023-08-06T01:27:01;16.38;99.99
69823;SHT31;57119;52.516;13.508;2023-08-06T01:29:34;16.39;99.99
69823;SHT31;57119;52.516;13.508;2023-08-06T01:32:01;16.41;99.99
69823;SHT31;57119;52.516;13.508;2023-08-06T01:34:29;16.46;99.99
69823;SHT31;57119;52.516;13.508;2023-08-06T01:36:56;16.46;99.99
69823;SHT31;57119;52.516;13.508;2023-08-06T01:39:22;16.46;99.99
69823;SHT31;57119;52.516;13.508;2023-08-06T01:41:50;16.39;99.99
69823;SHT31;57119;52.516;13.508;2023-08-06T01:44:16;16.39;99.99
69823;SHT31;57119;52.516;13.508;2023-08-06T01:46:42;16.39;99.99
69823;SHT31;57119;52.516;13.508;2023-08-06T01:49:07;16.41;99.99
69823;SHT31;57119;52.516;13.508;2023-08-06T01:51:33;16.36;99.99
69823;SHT31;57119;52.516;13.508;2023-08-06T01:53:58;16.30;99.99
69823;SHT31;57119;52.516;13.508;2023-08-06T01:56:24;16.34;99.99
69823;SHT31;57119;52.516;13.508;2023-08-06T01:58:52;16.32;99.99
69823;SHT31;57119;52.516;13.508;2023-08-06T02:01:17;16.28;99.99
69823;SHT31;57119;52.516;13.508;2023-08-06T02:03:43;16.23;99.99
69823;SHT31;57119;52.516;13.508;2023-08-06T02:06:08;16.21;99.99
69823;SHT31;57119;52.516;13.508;2023-08-06T02:08:34;16.16;99.99
69823;SHT31;57119;52.516;13.508;2023-08-06T02:10:59;16.09;99.99
69823;SHT31;57119;52.516;13.508;2023-08-06T02:13:24;16.12;99.99
69823;SHT31;57119;52.516;13.508;2023-08-06T02:15:50;16.12;99.99
69823;SHT31;57119;52.516;13.508;2023-08-06T02:18:15;16.13;99.99
69823;SHT31;57119;52.516;13.508;2023-08-06T02:20:41;16.16;99.99
69823;SHT31;57119;52.516;13.508;2023-08-06T02:23:07;16.21;99.99
69823;SHT31;57119;52.516;13.508;2023-08-06T02:25:32;16.15;99.99
69823;SHT31;57119;52.516;13.508;2023-08-06T02:27:57;16.13;99.99
69823;SHT31;57119;52.516;13.508;2023-08-06T02:30:23;16.11;99.99
69823;SHT31;57119;52.516;13.508;2023-08-06T02:32:48;16.11;99.99
69823;SHT31;57119;52.516;13.508;2023-08-06T02:35:14;16.09;99.99
69823;SHT31;57119;52.516;13.508;2023-08-06T02:37:39;16.12;99.99
69823;SHT31;57119;52.516;13.508;2023-08-06T02:40:05;16.05;99.99
69823;SHT31;57119;52.516;13.508;2023-08-06T02:42:30;15.95;99.99
69823;SHT31;57119;52.516;13.508;2023-08-06T02:44:56;15.95;99.99
69823;SHT31;57119;52.516;13.508;2023-08-06T02:47:21;15.98;99.99
69823;SHT31;57119;52.516;13.508;2023-08-06T02:49:47;15.98;99.99
69823;SHT31;57119;52.516;13.508;2023-08-06T02:52:12;16.02;99.99
69823;SHT31;57119;52.516;13.508;2023-08-06T02:54:38;16.01;99.99
69823;SHT31;57119;52.516;13.508;2023-08-06T02:57:04;16.09;99.99
69823;SHT31;57119;52.516;13.508;2023-08-06T02:59:30;16.05;99.99
69823;SHT31;57119;52.516;13.508;2023-08-06T03:01:55;16.08;99.99
69823;SHT31;57119;52.516;13.508;2023-08-06T03:04:21;16.09;99.99
69823;SHT31;57119;52.516;13.508;2023-08-06T03:06:46;16.08;99.99
69823;SHT31;57119;52.516;13.508;2023-08-06T03:09:12;16.06;99.99
69823;SHT31;57119;52.516;13.508;2023-08-06T03:11:37;16.04;99.99
69823;SHT31;57119;52.516;13.508;2023-08-06T03:14:02;16.06;99.99
69823;SHT31;57119;52.516;13.508;2023-08-06T03:16:28;16.08;99.99
69823;SHT31;57119;52.516;13.508;2023-08-06T03:18:53;16.05;99.99
69823;SHT31;57119;52.516;13.508;2023-08-06T03:21:19;16.01;99.99
69823;SHT31;57119;52.516;13.508;2023-08-06T03:23:47;16.05;99.99
69823;SHT31;57119;52.516;13.508;2023-08-06T03:26:13;16.00;99.99
69823;SHT31;57119;52.516;13.508;2023-08-06T03:28:39;15.98;99.99
69823;SHT31;57119;52.516;13.508;2023-08-06T03:31:04;16.06;99.99
69823;SHT31;57119;52.516;13.508;2023-08-06T03:33:30;16.09;99.99
69823;SHT31;57119;52.516;13.508;2023-08-06T03:35:56;16.01;99.99
69823;SHT31;57119;52.516;13.508;2023-08-06T03:38:21;16.06;99.99
69823;SHT31;57119;52.516;13.508;2023-08-06T03:40:48;16.05;99.99
69823;SHT31;57119;52.516;13.508;2023-08-06T03:43:14;16.01;99.99
69823;SHT31;57119;52.516;13.508;2023-08-06T03:45:40;16.02;99.99
69823;SHT31;57119;52.516;13.508;2023-08-06T03:48:05;16.01;99.99
69823;SHT31;57119;52.516;13.508;2023-08-06T03:50:31;16.05;99.99
69823;SHT31;57119;52.516;13.508;2023-08-06T03:52:56;16.00;99.99
69823;SHT31;57119;52.516;13.508;2023-08-06T03:55:22;16.05;99.99
69823;SHT31;57119;52.516;13.508;2023-08-06T03:57:47;16.02;99.99
69823;SHT31;57119;52.516;13.508;2023-08-06T04:00:13;16.04;99.99
69823;SHT31;57119;52.516;13.508;2023-08-06T04:02:38;16.01;99.99
69823;SHT31;57119;52.516;13.508;2023-08-06T04:05:04;16.02;99.99
69823;SHT31;57119;52.516;13.508;2023-08-06T04:07:29;16.01;99.99
69823;SHT31;57119;52.516;13.508;2023-08-06T04:09:58;16.01;99.99
69823;SHT31;57119;52.516;13.508;2023-08-06T04:12:23;16.01;99.99
69823;SHT31;57119;52.516;13.508;2023-08-06T04:14:50;16.09;99.99
69823;SHT31;57119;52.516;13.508;2023-08-06T04:17:17;16.00;99.99
69823;SHT31;57119;52.516;13.508;2023-08-06T04:19:48;15.90;99.99
69823;SHT31;57119;52.516;13.508;2023-08-06T04:22:14;15.97;99.99
69823;SHT31;57119;52.516;13.508;2023-08-06T04:24:40;16.01;99.99
69823;SHT31;57119;52.516;13.508;2023-08-06T04:27:05;16.08;99.99
69823;SHT31;57119;52.516;13.508;2023-08-06T04:29:30;16.08;99.99
69823;SHT31;57119;52.516;13.508;2023-08-06T04:31:56;16.08;99.99
69823;SHT31;57119;52.516;13.508;2023-08-06T04:34:21;16.05;99.99
69823;SHT31;57119;52.516;13.508;2023-08-06T04:36:46;16.05;99.99
69823;SHT31;57119;52.516;13.508;2023-08-06T04:39:12;15.97;99.99
69823;SHT31;57119;52.516;13.508;2023-08-06T04:41:37;15.92;99.99
69823;SHT31;57119;52.516;13.508;2023-08-06T04:44:03;15.98;99.99
69823;SHT31;57119;52.516;13.508;2023-08-06T04:46:29;15.95;99.99
69823;SHT31;57119;52.516;13.508;2023-08-06T04:48:54;15.88;99.99
69823;SHT31;57119;52.516;13.508;2023-08-06T04:51:20;15.90;99.99
69823;SHT31;57119;52.516;13.508;2023-08-06T04:53:45;15.95;99.99
69823;SHT31;57119;52.516;13.508;2023-08-06T04:56:11;15.95;99.99
69823;SHT31;57119;52.516;13.508;2023-08-06T04:58:36;16.02;99.99
69823;SHT31;57119;52.516;13.508;2023-08-06T05:01:01;16.09;99.99
69823;SHT31;57119;52.516;13.508;2023-08-06T05:03:27;16.19;99.99
69823;SHT31;57119;52.516;13.508;2023-08-06T05:05:52;16.21;99.99
69823;SHT31;57119;52.516;13.508;2023-08-06T05:08:17;16.32;99.99
69823;SHT31;57119;52.516;13.508;2023-08-06T05:10:46;16.28;99.99
69823;SHT31;57119;52.516;13.508;2023-08-06T05:13:12;16.26;99.99
69823;SHT31;57119;52.516;13.508;2023-08-06T05:15:37;16.30;99.99
69823;SHT31;57119;52.516;13.508;2023-08-06T05:18:05;16.28;99.99
69823;SHT31;57119;52.516;13.508;2023-08-06T05:20:30;16.29;99.99
69823;SHT31;57119;52.516;13.508;2023-08-06T05:22:55;16.42;99.99
69823;SHT31;57119;52.516;13.508;2023-08-06T05:25:21;16.45;99.99
69823;SHT31;57119;52.516;13.508;2023-08-06T05:27:46;16.45;99.99
69823;SHT31;57119;52.516;13.508;2023-08-06T05:30:11;16.55;99.99
69823;SHT31;57119;52.516;13.508;2023-08-06T05:32:37;16.55;99.99
69823;SHT31;57119;52.516;13.508;2023-08-06T05:35:02;16.56;99.99
69823;SHT31;57119;52.516;13.508;2023-08-06T05:37:28;16.64;99.99
69823;SHT31;57119;52.516;13.508;2023-08-06T05:39:53;16.67;99.99
69823;SHT31;57119;52.516;13.508;2023-08-06T05:42:19;16.66;99.99
69823;SHT31;57119;52.516;13.508;2023-08-06T05:44:44;16.64;99.99
69823;SHT31;57119;52.516;13.508;2023-08-06T05:47:09;16.56;99.99
69823;SHT31;57119;52.516;13.508;2023-08-06T05:49:35;16.64;99.99
69823;SHT31;57119;52.516;13.508;2023-08-06T05:52:00;16.67;99.99
69823;SHT31;57119;52.516;13.508;2023-08-06T05:54:25;16.64;99.99
69823;SHT31;57119;52.516;13.508;2023-08-06T05:56:51;16.73;99.99
69823;SHT31;57119;52.516;13.508;2023-08-06T05:59:16;16.73;99.99
69823;SHT31;57119;52.516;13.508;2023-08-06T06:01:41;16.87;99.99
69823;SHT31;57119;52.516;13.508;2023-08-06T06:04:07;16.91;99.99
69823;SHT31;57119;52.516;13.508;2023-08-06T06:06:32;17.01;99.99
69823;SHT31;57119;52.516;13.508;2023-08-06T06:08:58;17.00;99.99
69823;SHT31;57119;52.516;13.508;2023-08-06T06:11:23;17.00;99.99
69823;SHT31;57119;52.516;13.508;2023-08-06T06:13:52;17.00;99.99
69823;SHT31;57119;52.516;13.508;2023-08-06T06:16:17;16.94;99.99
69823;SHT31;57119;52.516;13.508;2023-08-06T06:18:43;17.01;99.99
69823;SHT31;57119;52.516;13.508;2023-08-06T06:21:09;17.04;99.99
69823;SHT31;57119;52.516;13.508;2023-08-06T06:23:34;17.08;99.99
69823;SHT31;57119;52.516;13.508;2023-08-06T06:26:00;17.17;99.99
69823;SHT31;57119;52.516;13.508;2023-08-06T06:28:25;17.22;99.99
69823;SHT31;57119;52.516;13.508;2023-08-06T06:31:00;17.32;99.99
69823;SHT31;57119;52.516;13.508;2023-08-06T06:33:26;17.31;99.99
69823;SHT31;57119;52.516;13.508;2023-08-06T06:35:52;17.24;99.99
69823;SHT31;57119;52.516;13.508;2023-08-06T06:38:17;17.35;99.99
69823;SHT31;57119;52.516;13.508;2023-08-06T06:40:42;17.35;99.99
69823;SHT31;57119;52.516;13.508;2023-08-06T06:43:08;17.49;99.99
69823;SHT31;57119;52.516;13.508;2023-08-06T06:45:33;17.53;99.99
69823;SHT31;57119;52.516;13.508;2023-08-06T06:47:58;17.40;99.99
69823;SHT31;57119;52.516;13.508;2023-08-06T06:50:24;17.38;99.99
69823;SHT31;57119;52.516;13.508;2023-08-06T06:52:49;17.45;99.99
69823;SHT31;57119;52.516;13.508;2023-08-06T06:55:15;17.45;99.99
69823;SHT31;57119;52.516;13.508;2023-08-06T06:57:40;17.49;99.99
69823;SHT31;57119;52.516;13.508;2023-08-06T07:00:06;17.56;99.99
69823;SHT31;57119;52.516;13.508;2023-08-06T07:02:32;17.73;99.99
69823;SHT31;57119;52.516;13.508;2023-08-06T07:04:57;17.77;99.99
69823;SHT31;57119;52.516;13.508;2023-08-06T07:07:22;17.87;99.99
69823;SHT31;57119;52.516;13.508;2023-08-06T07:09:48;17.89;99.99
69823;SHT31;57119;52.516;13.508;2023-08-06T07:12:13;17.83;99.99
69823;SHT31;57119;52.516;13.508;2023-08-06T07:14:39;17.93;99.99
69823;SHT31;57119;52.516;13.508;2023-08-06T07:17:04;17.89;99.99
69823;SHT31;57119;52.516;13.508;2023-08-06T07:19:33;17.90;99.99
69823;SHT31;57119;52.516;13.508;2023-08-06T07:21:59;18.03;99.99
69823;SHT31;57119;52.516;13.508;2023-08-06T07:24:24;18.14;99.99
69823;SHT31;57119;52.516;13.508;2023-08-06T07:26:50;18.17;99.99
69823;SHT31;57119;52.516;13.508;2023-08-06T07:29:15;18.15;99.99
69823;SHT31;57119;52.516;13.508;2023-08-06T07:31:46;18.41;99.99
69823;SHT31;57119;52.516;13.508;2023-08-06T07:34:11;18.31;99.99
69823;SHT31;57119;52.516;13.508;2023-08-06T07:36:37;18.28;99.99
69823;SHT31;57119;52.516;13.508;2023-08-06T07:39:03;18.35;99.99
69823;SHT31;57119;52.516;13.508;2023-08-06T07:41:34;18.40;99.99
69823;SHT31;57119;52.516;13.508;2023-08-06T07:44:00;18.38;99.99
69823;SHT31;57119;52.516;13.508;2023-08-06T07:46:25;18.47;99.99
69823;SHT31;57119;52.516;13.508;2023-08-06T07:48:51;18.52;99.99
69823;SHT31;57119;52.516;13.508;2023-08-06T07:51:16;18.34;99.99
69823;SHT31;57119;52.516;13.508;2023-08-06T07:53:42;18.38;99.99
69823;SHT31;57119;52.516;13.508;2023-08-06T07:56:07;18.43;99.99
69823;SHT31;57119;52.516;13.508;2023-08-06T07:58:32;18.38;99.99
69823;SHT31;57119;52.516;13.508;2023-08-06T08:00:58;18.55;99.99
69823;SHT31;57119;52.516;13.508;2023-08-06T08:03:23;18.44;99.99
69823;SHT31;57119;52.516;13.508;2023-08-06T08:05:49;18.54;99.99
69823;SHT31;57119;52.516;13.508;2023-08-06T08:08:14;18.56;99.99
69823;SHT31;57119;52.516;13.508;2023-08-06T08:10:40;18.64;99.99
69823;SHT31;57119;52.516;13.508;2023-08-06T08:13:06;18.71;99.99
69823;SHT31;57119;52.516;13.508;2023-08-06T08:15:31;18.52;99.99
69823;SHT31;57119;52.516;13.508;2023-08-06T08:17:57;18.68;99.99
69823;SHT31;57119;52.516;13.508;2023-08-06T08:20:23;18.69;99.99
69823;SHT31;57119;52.516;13.508;2023-08-06T08:22:49;18.59;99.99
69823;SHT31;57119;52.516;13.508;2023-08-06T08:25:15;18.69;99.99
69823;SHT31;57119;52.516;13.508;2023-08-06T08:27:40;18.79;99.99
69823;SHT31;57119;52.516;13.508;2023-08-06T08:30:06;18.71;99.99
69823;SHT31;57119;52.516;13.508;2023-08-06T08:32:35;18.72;99.99
69823;SHT31;57119;52.516;13.508;2023-08-06T08:35:00;18.54;99.99
69823;SHT31;57119;52.516;13.508;2023-08-06T08:37:26;18.62;99.99
69823;SHT31;57119;52.516;13.508;2023-08-06T08:39:54;18.65;99.99
69823;SHT31;57119;52.516;13.508;2023-08-06T08:42:19;18.64;99.99
69823;SHT31;57119;52.516;13.508;2023-08-06T08:44:45;18.61;99.99
69823;SHT31;57119;52.516;13.508;2023-08-06T08:47:12;18.75;99.99
69823;SHT31;57119;52.516;13.508;2023-08-06T08:49:38;18.75;99.99
69823;SHT31;57119;52.516;13.508;2023-08-06T08:52:04;18.72;99.99
69823;SHT31;57119;52.516;13.508;2023-08-06T08:54:32;18.76;99.99
69823;SHT31;57119;52.516;13.508;2023-08-06T08:56:58;18.76;99.99
69823;SHT31;57119;52.516;13.508;2023-08-06T08:59:23;18.76;99.99
69823;SHT31;57119;52.516;13.508;2023-08-06T09:01:49;18.81;99.99
69823;SHT31;57119;52.516;13.508;2023-08-06T09:04:17;19.04;99.99
69823;SHT31;57119;52.516;13.508;2023-08-06T09:06:46;19.03;99.99
69823;SHT31;57119;52.516;13.508;2023-08-06T09:09:13;19.06;99.99
69823;SHT31;57119;52.516;13.508;2023-08-06T09:11:43;19.04;99.99
69823;SHT31;57119;52.516;13.508;2023-08-06T09:14:09;19.17;99.99
69823;SHT31;57119;52.516;13.508;2023-08-06T09:16:36;19.31;99.99
69823;SHT31;57119;52.516;13.508;2023-08-06T09:21:37;19.20;99.99
69823;SHT31;57119;52.516;13.508;2023-08-06T09:24:07;19.06;99.99
69823;SHT31;57119;52.516;13.508;2023-08-06T09:26:34;18.77;99.99
69823;SHT31;57119;52.516;13.508;2023-08-06T09:29:00;18.69;99.99
69823;SHT31;57119;52.516;13.508;2023-08-06T09:31:32;18.66;99.99
69823;SHT31;57119;52.516;13.508;2023-08-06T09:34:02;18.51;99.99
69823;SHT31;57119;52.516;13.508;2023-08-06T09:36:28;18.58;99.99
69823;SHT31;57119;52.516;13.508;2023-08-06T09:38:53;18.44;99.99
69823;SHT31;57119;52.516;13.508;2023-08-06T09:41:28;18.62;99.99
69823;SHT31;57119;52.516;13.508;2023-08-06T09:43:56;18.73;99.60
69823;SHT31;57119;52.516;13.508;2023-08-06T09:46:21;18.91;99.80
69823;SHT31;57119;52.516;13.508;2023-08-06T09:48:47;19.17;99.61
69823;SHT31;57119;52.516;13.508;2023-08-06T09:51:13;19.31;99.64
69823;SHT31;57119;52.516;13.508;2023-08-06T09:53:40;19.54;98.28
69823;SHT31;57119;52.516;13.508;2023-08-06T09:56:06;19.64;99.12
69823;SHT31;57119;52.516;13.508;2023-08-06T09:58:32;19.68;99.02
69823;SHT31;57119;52.516;13.508;2023-08-06T10:00:59;19.79;98.40
69823;SHT31;57119;52.516;13.508;2023-08-06T10:03:25;19.92;97.48
69823;SHT31;57119;52.516;13.508;2023-08-06T10:05:52;19.98;96.81
69823;SHT31;57119;52.516;13.508;2023-08-06T10:08:18;19.78;97.13
69823;SHT31;57119;52.516;13.508;2023-08-06T10:10:44;19.69;97.31
69823;SHT31;57119;52.516;13.508;2023-08-06T10:13:11;19.68;96.65
69823;SHT31;57119;52.516;13.508;2023-08-06T10:15:38;19.60;96.85
69823;SHT31;57119;52.516;13.508;2023-08-06T10:18:05;19.88;96.28
69823;SHT31;57119;52.516;13.508;2023-08-06T10:20:34;20.12;95.98
69823;SHT31;57119;52.516;13.508;2023-08-06T10:23:04;19.95;94.87
69823;SHT31;57119;52.516;13.508;2023-08-06T10:25:31;19.90;94.05
69823;SHT31;57119;52.516;13.508;2023-08-06T10:27:58;19.74;93.60
69823;SHT31;57119;52.516;13.508;2023-08-06T10:32:54;19.90;94.30
69823;SHT31;57119;52.516;13.508;2023-08-06T10:37:58;19.92;94.81
69823;SHT31;57119;52.516;13.508;2023-08-06T10:40:23;19.81;93.72
69823;SHT31;57119;52.516;13.508;2023-08-06T10:42:50;19.82;95.04
69823;SHT31;57119;52.516;13.508;2023-08-06T10:45:18;19.53;92.91
69823;SHT31;57119;52.516;13.508;2023-08-06T10:47:45;19.50;93.50
69823;SHT31;57119;52.516;13.508;2023-08-06T10:50:15;19.34;94.73
69823;SHT31;57119;52.516;13.508;2023-08-06T10:52:43;19.47;95.05
69823;SHT31;57119;52.516;13.508;2023-08-06T10:55:09;19.54;94.02
69823;SHT31;57119;52.516;13.508;2023-08-06T10:57:35;19.37;94.84
69823;SHT31;57119;52.516;13.508;2023-08-06T11:00:01;19.41;95.19
69823;SHT31;57119;52.516;13.508;2023-08-06T11:02:26;19.30;95.91
69823;SHT31;57119;52.516;13.508;2023-08-06T11:04:53;19.26;96.81
69823;SHT31;57119;52.516;13.508;2023-08-06T11:07:18;19.51;94.53
69823;SHT31;57119;52.516;13.508;2023-08-06T11:09:43;19.48;95.08
69823;SHT31;57119;52.516;13.508;2023-08-06T11:12:10;19.57;95.10
69823;SHT31;57119;52.516;13.508;2023-08-06T11:14:35;19.60;94.62
69823;SHT31;57119;52.516;13.508;2023-08-06T11:17:01;19.62;95.85
69823;SHT31;57119;52.516;13.508;2023-08-06T11:19:26;19.65;95.46
69823;SHT31;57119;52.516;13.508;2023-08-06T11:21:52;19.61;96.02
69823;SHT31;57119;52.516;13.508;2023-08-06T11:24:17;19.60;95.30
69823;SHT31;57119;52.516;13.508;2023-08-06T11:26:43;19.58;96.67
69823;SHT31;57119;52.516;13.508;2023-08-06T11:29:10;19.74;96.36
69823;SHT31;57119;52.516;13.508;2023-08-06T11:31:36;20.00;96.97
69823;SHT31;57119;52.516;13.508;2023-08-06T11:34:01;19.98;96.34
69823;SHT31;57119;52.516;13.508;2023-08-06T11:36:33;20.00;94.91
69823;SHT31;57119;52.516;13.508;2023-08-06T11:39:00;19.68;96.81
69823;SHT31;57119;52.516;13.508;2023-08-06T11:41:27;19.82;97.67
69823;SHT31;57119;52.516;13.508;2023-08-06T11:43:53;19.82;96.61
69823;SHT31;57119;52.516;13.508;2023-08-06T11:46:18;19.90;95.75
69823;SHT31;57119;52.516;13.508;2023-08-06T11:48:57;19.86;96.58
69823;SHT31;57119;52.516;13.508;2023-08-06T11:51:24;19.78;96.02
69823;SHT31;57119;52.516;13.508;2023-08-06T11:53:54;19.65;96.35
69823;SHT31;57119;52.516;13.508;2023-08-06T11:56:20;19.43;96.02
69823;SHT31;57119;52.516;13.508;2023-08-06T11:58:45;19.57;96.73
69823;SHT31;57119;52.516;13.508;2023-08-06T12:01:11;19.67;96.44
69823;SHT31;57119;52.516;13.508;2023-08-06T12:03:40;19.72;95.82
69823;SHT31;57119;52.516;13.508;2023-08-06T12:06:06;19.98;96.19
69823;SHT31;57119;52.516;13.508;2023-08-06T12:08:32;19.93;96.19
69823;SHT31;57119;52.516;13.508;2023-08-06T12:10:58;19.85;97.78
69823;SHT31;57119;52.516;13.508;2023-08-06T12:13:23;20.04;96.88
69823;SHT31;57119;52.516;13.508;2023-08-06T12:15:49;20.05;95.55
69823;SHT31;57119;52.516;13.508;2023-08-06T12:18:14;19.88;96.63
69823;SHT31;57119;52.516;13.508;2023-08-06T12:20:40;19.90;95.97
69823;SHT31;57119;52.516;13.508;2023-08-06T12:23:05;20.06;96.21
69823;SHT31;57119;52.516;13.508;2023-08-06T12:25:30;20.05;95.99
69823;SHT31;57119;52.516;13.508;2023-08-06T12:27:56;20.10;95.30
69823;SHT31;57119;52.516;13.508;2023-08-06T12:30:21;20.08;94.78
69823;SHT31;57119;52.516;13.508;2023-08-06T12:32:46;19.77;95.97
69823;SHT31;57119;52.516;13.508;2023-08-06T12:35:12;19.77;96.49
69823;SHT31;57119;52.516;13.508;2023-08-06T12:37:39;19.78;95.73
69823;SHT31;57119;52.516;13.508;2023-08-06T12:40:05;19.62;95.53
69823;SHT31;57119;52.516;13.508;2023-08-06T12:42:30;19.54;96.42
69823;SHT31;57119;52.516;13.508;2023-08-06T12:44:56;19.46;96.42
69823;SHT31;57119;52.516;13.508;2023-08-06T12:47:21;19.43;96.83
69823;SHT31;57119;52.516;13.508;2023-08-06T12:49:47;19.37;97.51
69823;SHT31;57119;52.516;13.508;2023-08-06T12:52:12;19.28;96.68
69823;SHT31;57119;52.516;13.508;2023-08-06T12:54:40;19.31;97.28
69823;SHT31;57119;52.516;13.508;2023-08-06T12:57:06;19.30;97.41
69823;SHT31;57119;52.516;13.508;2023-08-06T12:59:31;19.37;96.84
69823;SHT31;57119;52.516;13.508;2023-08-06T13:01:58;19.31;97.23
69823;SHT31;57119;52.516;13.508;2023-08-06T13:04:23;19.33;97.81
69823;SHT31;57119;52.516;13.508;2023-08-06T13:06:49;19.26;97.83
69823;SHT31;57119;52.516;13.508;2023-08-06T13:09:15;19.30;97.63
69823;SHT31;57119;52.516;13.508;2023-08-06T13:11:41;19.23;97.91
69823;SHT31;57119;52.516;13.508;2023-08-06T13:14:08;19.00;99.40
69823;SHT31;57119;52.516;13.508;2023-08-06T13:16:35;19.13;99.66
69823;SHT31;57119;52.516;13.508;2023-08-06T13:19:00;18.93;99.25
69823;SHT31;57119;52.516;13.508;2023-08-06T13:21:58;19.10;99.45
69823;SHT31;57119;52.516;13.508;2023-08-06T13:24:23;19.21;99.36
69823;SHT31;57119;52.516;13.508;2023-08-06T13:26:49;19.17;98.39
69823;SHT31;57119;52.516;13.508;2023-08-06T13:29:14;19.38;98.80
69823;SHT31;57119;52.516;13.508;2023-08-06T13:31:39;19.16;98.06
69823;SHT31;57119;52.516;13.508;2023-08-06T13:34:05;19.17;98.66
69823;SHT31;57119;52.516;13.508;2023-08-06T13:36:30;19.23;98.83
69823;SHT31;57119;52.516;13.508;2023-08-06T13:38:56;19.21;99.19
69823;SHT31;57119;52.516;13.508;2023-08-06T13:41:22;19.16;99.34
69823;SHT31;57119;52.516;13.508;2023-08-06T13:43:48;19.10;98.09
69823;SHT31;57119;52.516;13.508;2023-08-06T13:46:14;19.12;99.26
69823;SHT31;57119;52.516;13.508;2023-08-06T13:48:44;19.14;99.38
69823;SHT31;57119;52.516;13.508;2023-08-06T13:51:10;18.95;98.97
69823;SHT31;57119;52.516;13.508;2023-08-06T13:53:36;18.98;98.51
69823;SHT31;57119;52.516;13.508;2023-08-06T13:56:02;19.07;97.99
69823;SHT31;57119;52.516;13.508;2023-08-06T13:58:28;19.09;98.60
69823;SHT31;57119;52.516;13.508;2023-08-06T14:00:53;18.99;99.80
69823;SHT31;57119;52.516;13.508;2023-08-06T14:03:20;19.19;99.22
69823;SHT31;57119;52.516;13.508;2023-08-06T14:05:45;19.12;98.49
69823;SHT31;57119;52.516;13.508;2023-08-06T14:08:11;19.06;99.51
69823;SHT31;57119;52.516;13.508;2023-08-06T14:10:36;18.95;98.57
69823;SHT31;57119;52.516;13.508;2023-08-06T14:13:02;19.00;97.61
69823;SHT31;57119;52.516;13.508;2023-08-06T14:15:27;18.93;98.54
69823;SHT31;57119;52.516;13.508;2023-08-06T14:17:53;18.92;98.81
69823;SHT31;57119;52.516;13.508;2023-08-06T14:20:18;18.76;99.02
69823;SHT31;57119;52.516;13.508;2023-08-06T14:22:43;18.77;99.99
69823;SHT31;57119;52.516;13.508;2023-08-06T14:25:09;18.93;99.98
69823;SHT31;57119;52.516;13.508;2023-08-06T14:27:34;18.83;99.99
69823;SHT31;57119;52.516;13.508;2023-08-06T14:30:00;18.69;99.63
69823;SHT31;57119;52.516;13.508;2023-08-06T14:32:26;18.44;99.99
69823;SHT31;57119;52.516;13.508;2023-08-06T14:34:51;18.27;99.29
69823;SHT31;57119;52.516;13.508;2023-08-06T14:37:17;18.35;99.13
69823;SHT31;57119;52.516;13.508;2023-08-06T14:39:42;18.41;98.51
69823;SHT31;57119;52.516;13.508;2023-08-06T14:42:08;18.24;98.53
69823;SHT31;57119;52.516;13.508;2023-08-06T14:44:33;18.13;98.52
69823;SHT31;57119;52.516;13.508;2023-08-06T14:46:59;18.20;99.00
69823;SHT31;57119;52.516;13.508;2023-08-06T14:49:24;18.11;99.36
69823;SHT31;57119;52.516;13.508;2023-08-06T14:51:50;18.11;99.13
69823;SHT31;57119;52.516;13.508;2023-08-06T14:54:15;17.98;99.54
69823;SHT31;57119;52.516;13.508;2023-08-06T14:56:41;18.06;99.02
69823;SHT31;57119;52.516;13.508;2023-08-06T14:59:06;18.07;99.99
69823;SHT31;57119;52.516;13.508;2023-08-06T15:01:31;18.18;99.99
69823;SHT31;57119;52.516;13.508;2023-08-06T15:03:57;18.21;99.58
69823;SHT31;57119;52.516;13.508;2023-08-06T15:06:22;18.20;99.51
69823;SHT31;57119;52.516;13.508;2023-08-06T15:08:47;18.13;99.99
69823;SHT31;57119;52.516;13.508;2023-08-06T15:11:13;18.23;99.99
69823;SHT31;57119;52.516;13.508;2023-08-06T15:13:40;18.23;99.99
69823;SHT31;57119;52.516;13.508;2023-08-06T15:16:05;18.41;99.72